Marina Lobra — IXVN — position and weather

sailwx.info

Track history (hours):
 
Tides and Currents Weather Stations Pressure Air Temp Water Temp Dewpoint Dewpoint Depression Visibility Wind Speed Wind Dir Waves Ship Positions

Marina Lobra

Last reported at 2015-Mar-27 12:30 UTC. Time now 2015-Mar-27 13:21 UTC.
Position N 40°51' E 014°16'.

Length 56 m; draft 2.4 m.

Type: Ship (hazmat cat C). MMSI: 247188300.

Date/timePositionNaut miles runAvg speedWind from/ knotsBaromVisibWave heightAir tempDewpointWater temp
2015-Mar-27 12:30N 40°51' E 014°16'0 0.0
2015-Mar-27 11:21N 40°51' E 014°16'0 0.0
2015-Mar-27 06:29N 40°51' E 014°16'0 0.0
2015-Mar-27 05:33N 40°51' E 014°16'0 0.0
2015-Mar-27 04:29N 40°51' E 014°16'0 0.0
2015-Mar-27 03:33N 40°51' E 014°16'0 0.0
2015-Mar-27 02:33N 40°51' E 014°16'0 0.0
2015-Mar-27 01:33N 40°51' E 014°16'0 0.0
2015-Mar-27 00:33N 40°51' E 014°16'0 0.0
2015-Mar-26 23:32N 40°51' E 014°16'0 0.0
2015-Mar-26 22:28N 40°51' E 014°16'0 0.0
2015-Mar-26 21:33N 40°51' E 014°16'0 0.0
2015-Mar-26 20:33N 40°51' E 014°16'2 2.3
2015-Mar-26 19:33N 40°49' E 014°18'6 5.9
2015-Mar-26 18:32N 40°45' E 014°23'5 4.9
2015-Mar-26 17:33N 40°42' E 014°28'0 0.0
2015-Mar-26 16:33N 40°42' E 014°28'0 0.0
2015-Mar-26 15:33N 40°42' E 014°28'0 0.0
2015-Mar-26 14:33N 40°42' E 014°28'0 0.0
2015-Mar-26 13:33N 40°42' E 014°28'3 2.8
2015-Mar-26 12:33N 40°43' E 014°25'6 5.6
2015-Mar-26 11:33N 40°47' E 014°20'4 3.7
2015-Mar-26 10:34N 40°50' E 014°17'0 0.0
2015-Mar-26 09:32N 40°50' E 014°17'0 0.0
2015-Mar-26 08:33N 40°50' E 014°17'1 0.2
2015-Mar-26 02:23N 40°51' E 014°16'1 0.1
2015-Mar-25 14:32N 40°50' E 014°17'0 0.0
2015-Mar-25 13:33N 40°50' E 014°17'0 0.0
2015-Mar-25 12:33N 40°50' E 014°17'0 0.0
2015-Mar-25 11:33N 40°50' E 014°17'1 0.6
2015-Mar-25 09:10N 40°50' E 014°15'0 0.2
2015-Mar-25 07:22N 40°51' E 014°16'0 0.0
2015-Mar-25 06:17N 40°51' E 014°16'0 0.0
2015-Mar-25 05:26N 40°51' E 014°16'0 0.0
2015-Mar-25 04:33N 40°51' E 014°16'0 0.0
2015-Mar-25 03:29N 40°51' E 014°16'0 0.0
2015-Mar-25 02:32N 40°51' E 014°16'0 0.0
2015-Mar-25 01:27N 40°51' E 014°16'0 0.0
2015-Mar-25 00:32N 40°51' E 014°16'0 0.0
2015-Mar-24 23:32N 40°51' E 014°16'0 0.0
2015-Mar-24 21:20N 40°51' E 014°16'0 0.0
2015-Mar-24 20:33N 40°51' E 014°16'0 0.0
2015-Mar-24 17:21N 40°51' E 014°16'0 0.0
2015-Mar-24 16:30N 40°51' E 014°16'0 0.1
2015-Mar-24 12:31N 40°50' E 014°16'1 1.5
2015-Mar-24 11:33N 40°50' E 014°17'0 0.0
2015-Mar-24 10:33N 40°50' E 014°17'0 0.0
2015-Mar-24 09:34N 40°50' E 014°17'0 0.0
2015-Mar-24 08:33N 40°50' E 014°17'0 0.0
2015-Mar-24 07:32N 40°50' E 014°17'1 0.4
2015-Mar-24 04:29N 40°51' E 014°16'0 0.0
2015-Mar-24 03:27N 40°51' E 014°16'0 0.0
2015-Mar-24 01:19N 40°51' E 014°16'0 0.0
2015-Mar-23 20:31N 40°51' E 014°16'0 0.1
2015-Mar-23 12:17N 40°50' E 014°15'1 2.0
2015-Mar-23 11:33N 40°50' E 014°17'0 0.0
2015-Mar-23 10:33N 40°50' E 014°17'0 0.0
2015-Mar-23 09:34N 40°50' E 014°17'0 0.0
2015-Mar-23 08:33N 40°50' E 014°17'0 0.0
2015-Mar-23 07:33N 40°50' E 014°17'1 0.1
2015-Mar-22 21:17N 40°51' E 014°16'1 0.0
2015-Mar-21 11:18N 40°51' E 014°17'0 0.0
2015-Mar-21 10:20N 40°51' E 014°17'0 0.1
2015-Mar-21 09:29N 40°50' E 014°17'1 0.1
2015-Mar-20 19:27N 40°51' E 014°16'1 0.2
2015-Mar-20 16:32N 40°50' E 014°16'1 0.9
2015-Mar-20 15:33N 40°50' E 014°17'0 0.0
2015-Mar-20 14:30N 40°50' E 014°17'1 0.3
2015-Mar-20 10:10N 40°51' E 014°16'0 0.0
2015-Mar-20 04:15N 40°51' E 014°16'0 0.0
2015-Mar-20 03:33N 40°51' E 014°16'0 0.0
2015-Mar-20 02:30N 40°51' E 014°16'0 0.0
2015-Mar-20 01:33N 40°51' E 014°16'0 0.0
2015-Mar-20 00:19N 40°51' E 014°16'0 0.0
2015-Mar-19 23:26N 40°51' E 014°16'0 0.0
2015-Mar-19 20:32N 40°51' E 014°16'0 0.0
2015-Mar-19 19:28N 40°51' E 014°16'0 0.0
2015-Mar-19 18:33N 40°51' E 014°16'0 0.0
2015-Mar-19 17:33N 40°51' E 014°16'0 0.0
2015-Mar-19 16:29N 40°51' E 014°16'1 0.5
2015-Mar-19 15:11N 40°51' E 014°17'0 0.0
2015-Mar-19 14:33N 40°51' E 014°17'1 0.5
2015-Mar-19 13:33N 40°50' E 014°17'0 0.0
2015-Mar-19 12:33N 40°50' E 014°17'0 0.0
2015-Mar-19 09:30N 40°50' E 014°17'0 0.0
2015-Mar-19 08:32N 40°50' E 014°17'1 1.1
2015-Mar-19 07:29N 40°51' E 014°16'0 0.0
2015-Mar-19 06:29N 40°51' E 014°16'0 0.0
2015-Mar-19 05:30N 40°51' E 014°16'0 0.0
2015-Mar-19 04:26N 40°51' E 014°16'0 0.0
2015-Mar-19 03:33N 40°51' E 014°16'0 0.0
2015-Mar-19 02:31N 40°51' E 014°16'0 0.0
2015-Mar-19 01:33N 40°51' E 014°16'0 0.0
2015-Mar-19 00:33N 40°51' E 014°16'0 0.0
2015-Mar-18 23:32N 40°51' E 014°16'0 0.0
2015-Mar-18 22:32N 40°51' E 014°16'0 0.0
2015-Mar-18 21:33N 40°51' E 014°16'0 0.0
2015-Mar-18 20:33N 40°51' E 014°16'0 0.0
2015-Mar-18 18:20N 40°51' E 014°16'0 0.0
2015-Mar-18 16:19N 40°51' E 014°16'0 0.0
2015-Mar-18 15:27N 40°51' E 014°16'0 0.0
2015-Mar-18 14:29N 40°51' E 014°16'0 0.1
2015-Mar-18 13:28N 40°51' E 014°16'0 0.1
2015-Mar-18 11:32N 40°50' E 014°16'1 1.2
2015-Mar-18 10:33N 40°50' E 014°17'0 0.0
2015-Mar-18 09:34N 40°50' E 014°17'0 0.0
2015-Mar-18 08:33N 40°50' E 014°17'1 0.1
2015-Mar-17 16:15N 40°51' E 014°16'0 0.0
2015-Mar-17 15:18N 40°51' E 014°16'0 0.2
2015-Mar-17 13:16N 40°50' E 014°16'  
Track history (hours):
 
Tides and Currents Weather Stations Pressure Air Temp Water Temp Dewpoint Dewpoint Depression Visibility Wind Speed Wind Dir Waves Ship Positions

Marina Lobra

Last reported at 2015-Mar-27 12:30 UTC. Time now 2015-Mar-27 13:21 UTC.
Position N 40°51' E 014°16'.

Length 56 m; draft 2.4 m.

Type: Ship (hazmat cat C). MMSI: 247188300.

Date/timePositionNaut miles runAvg speedWind from/ knotsBaromVisibWave heightAir tempDewpointWater temp
2015-Mar-27 12:30N 40°51' E 014°16'0 0.0
2015-Mar-27 11:21N 40°51' E 014°16'0 0.0
2015-Mar-27 06:29N 40°51' E 014°16'0 0.0
2015-Mar-27 05:33N 40°51' E 014°16'0 0.0
2015-Mar-27 04:29N 40°51' E 014°16'0 0.0
2015-Mar-27 03:33N 40°51' E 014°16'0 0.0
2015-Mar-27 02:33N 40°51' E 014°16'0 0.0
2015-Mar-27 01:33N 40°51' E 014°16'0 0.0
2015-Mar-27 00:33N 40°51' E 014°16'0 0.0
2015-Mar-26 23:32N 40°51' E 014°16'0 0.0
2015-Mar-26 22:28N 40°51' E 014°16'0 0.0
2015-Mar-26 21:33N 40°51' E 014°16'0 0.0
2015-Mar-26 20:33N 40°51' E 014°16'2 2.3
2015-Mar-26 19:33N 40°49' E 014°18'6 5.9
2015-Mar-26 18:32N 40°45' E 014°23'5 4.9
2015-Mar-26 17:33N 40°42' E 014°28'0 0.0
2015-Mar-26 16:33N 40°42' E 014°28'0 0.0
2015-Mar-26 15:33N 40°42' E 014°28'0 0.0
2015-Mar-26 14:33N 40°42' E 014°28'0 0.0
2015-Mar-26 13:33N 40°42' E 014°28'3 2.8
2015-Mar-26 12:33N 40°43' E 014°25'6 5.6
2015-Mar-26 11:33N 40°47' E 014°20'4 3.7
2015-Mar-26 10:34N 40°50' E 014°17'0 0.0
2015-Mar-26 09:32N 40°50' E 014°17'0 0.0
2015-Mar-26 08:33N 40°50' E 014°17'1 0.2
2015-Mar-26 02:23N 40°51' E 014°16'1 0.1
2015-Mar-25 14:32N 40°50' E 014°17'0 0.0
2015-Mar-25 13:33N 40°50' E 014°17'0 0.0
2015-Mar-25 12:33N 40°50' E 014°17'0 0.0
2015-Mar-25 11:33N 40°50' E 014°17'1 0.6
2015-Mar-25 09:10N 40°50' E 014°15'0 0.2
2015-Mar-25 07:22N 40°51' E 014°16'0 0.0
2015-Mar-25 06:17N 40°51' E 014°16'0 0.0
2015-Mar-25 05:26N 40°51' E 014°16'0 0.0
2015-Mar-25 04:33N 40°51' E 014°16'0 0.0
2015-Mar-25 03:29N 40°51' E 014°16'0 0.0
2015-Mar-25 02:32N 40°51' E 014°16'0 0.0
2015-Mar-25 01:27N 40°51' E 014°16'0 0.0
2015-Mar-25 00:32N 40°51' E 014°16'0 0.0
2015-Mar-24 23:32N 40°51' E 014°16'0 0.0
2015-Mar-24 21:20N 40°51' E 014°16'0 0.0
2015-Mar-24 20:33N 40°51' E 014°16'0 0.0
2015-Mar-24 17:21N 40°51' E 014°16'0 0.0
2015-Mar-24 16:30N 40°51' E 014°16'0 0.1
2015-Mar-24 12:31N 40°50' E 014°16'1 1.5
2015-Mar-24 11:33N 40°50' E 014°17'0 0.0
2015-Mar-24 10:33N 40°50' E 014°17'0 0.0
2015-Mar-24 09:34N 40°50' E 014°17'0 0.0
2015-Mar-24 08:33N 40°50' E 014°17'0 0.0
2015-Mar-24 07:32N 40°50' E 014°17'1 0.4
2015-Mar-24 04:29N 40°51' E 014°16'0 0.0
2015-Mar-24 03:27N 40°51' E 014°16'0 0.0
2015-Mar-24 01:19N 40°51' E 014°16'0 0.0
2015-Mar-23 20:31N 40°51' E 014°16'0 0.1
2015-Mar-23 12:17N 40°50' E 014°15'1 2.0
2015-Mar-23 11:33N 40°50' E 014°17'0 0.0
2015-Mar-23 10:33N 40°50' E 014°17'0 0.0
2015-Mar-23 09:34N 40°50' E 014°17'0 0.0
2015-Mar-23 08:33N 40°50' E 014°17'0 0.0
2015-Mar-23 07:33N 40°50' E 014°17'1 0.1
2015-Mar-22 21:17N 40°51' E 014°16'1 0.0
2015-Mar-21 11:18N 40°51' E 014°17'0 0.0
2015-Mar-21 10:20N 40°51' E 014°17'0 0.1
2015-Mar-21 09:29N 40°50' E 014°17'1 0.1
2015-Mar-20 19:27N 40°51' E 014°16'1 0.2
2015-Mar-20 16:32N 40°50' E 014°16'1 0.9
2015-Mar-20 15:33N 40°50' E 014°17'0 0.0
2015-Mar-20 14:30N 40°50' E 014°17'1 0.3
2015-Mar-20 10:10N 40°51' E 014°16'0 0.0
2015-Mar-20 04:15N 40°51' E 014°16'0 0.0
2015-Mar-20 03:33N 40°51' E 014°16'0 0.0
2015-Mar-20 02:30N 40°51' E 014°16'0 0.0
2015-Mar-20 01:33N 40°51' E 014°16'0 0.0
2015-Mar-20 00:19N 40°51' E 014°16'0 0.0
2015-Mar-19 23:26N 40°51' E 014°16'0 0.0
2015-Mar-19 20:32N 40°51' E 014°16'0 0.0
2015-Mar-19 19:28N 40°51' E 014°16'0 0.0
2015-Mar-19 18:33N 40°51' E 014°16'0 0.0
2015-Mar-19 17:33N 40°51' E 014°16'0 0.0
2015-Mar-19 16:29N 40°51' E 014°16'1 0.5
2015-Mar-19 15:11N 40°51' E 014°17'0 0.0
2015-Mar-19 14:33N 40°51' E 014°17'1 0.5
2015-Mar-19 13:33N 40°50' E 014°17'0 0.0
2015-Mar-19 12:33N 40°50' E 014°17'0 0.0
2015-Mar-19 09:30N 40°50' E 014°17'0 0.0
2015-Mar-19 08:32N 40°50' E 014°17'1 1.1
2015-Mar-19 07:29N 40°51' E 014°16'0 0.0
2015-Mar-19 06:29N 40°51' E 014°16'0 0.0
2015-Mar-19 05:30N 40°51' E 014°16'0 0.0
2015-Mar-19 04:26N 40°51' E 014°16'0 0.0
2015-Mar-19 03:33N 40°51' E 014°16'0 0.0
2015-Mar-19 02:31N 40°51' E 014°16'0 0.0
2015-Mar-19 01:33N 40°51' E 014°16'0 0.0
2015-Mar-19 00:33N 40°51' E 014°16'0 0.0
2015-Mar-18 23:32N 40°51' E 014°16'0 0.0
2015-Mar-18 22:32N 40°51' E 014°16'0 0.0
2015-Mar-18 21:33N 40°51' E 014°16'0 0.0
2015-Mar-18 20:33N 40°51' E 014°16'0 0.0
2015-Mar-18 18:20N 40°51' E 014°16'0 0.0
2015-Mar-18 16:19N 40°51' E 014°16'0 0.0
2015-Mar-18 15:27N 40°51' E 014°16'0 0.0
2015-Mar-18 14:29N 40°51' E 014°16'0 0.1
2015-Mar-18 13:28N 40°51' E 014°16'0 0.1
2015-Mar-18 11:32N 40°50' E 014°16'1 1.2
2015-Mar-18 10:33N 40°50' E 014°17'0 0.0
2015-Mar-18 09:34N 40°50' E 014°17'0 0.0
2015-Mar-18 08:33N 40°50' E 014°17'1 0.1
2015-Mar-17 16:15N 40°51' E 014°16'0 0.0
2015-Mar-17 15:18N 40°51' E 014°16'0 0.2
2015-Mar-17 13:16N 40°50' E 014°16'  

Dump ship's entire track history